Time;durP1;ratioP1;P1;durP2;ratioP2;P2;SDS_P1;SDS_P2;PMS_P1;PMS_P2;Temp;Humidity;BMP_temperature;BMP_pressure;BME280_temperature;BME280_humidity;BME280_pressure;Samples;Min_cycle;Max_cycle;Signal;HPM_P1;HPM_P2
2021/11/19 00:02:00;;;;;;;24.52;13.93;;;;;;;3.70;83.59;97632.28;5090178;28;20059;-73
2021/11/19 00:04:28;;;;;;;21.15;12.80;;;;;;;3.70;83.09;97634.97;5091081;28;20109;-73
2021/11/19 00:06:56;;;;;;;23.70;13.43;;;;;;;3.68;82.80;97626.34;5090404;28;20060;-73
2021/11/19 00:09:24;;;;;;;24.98;14.00;;;;;;;3.67;83.07;97625.53;5090586;28;20418;-73
2021/11/19 00:11:52;;;;;;;26.02;13.80;;;;;;;3.66;83.26;97629.28;5090177;28;20048;-73
2021/11/19 00:14:21;;;;;;;23.38;13.65;;;;;;;3.65;82.93;97634.88;5090356;28;20047;-73
2021/11/19 00:16:54;;;;;;;22.98;13.57;;;;;;;3.63;82.78;97637.84;5090334;28;20044;-72
2021/11/19 00:19:21;;;;;;;25.40;13.30;;;;;;;3.66;83.58;97639.25;5090055;28;20082;-73
2021/11/19 00:21:48;;;;;;;22.98;13.52;;;;;;;3.62;83.73;97643.47;5090556;28;20044;-73
2021/11/19 00:24:14;;;;;;;25.08;13.52;;;;;;;3.59;83.90;97638.56;5089554;28;20048;-74
2021/11/19 00:26:42;;;;;;;24.45;13.93;;;;;;;3.62;83.95;97638.09;5090364;28;20055;-73
2021/11/19 00:29:11;;;;;;;23.00;13.93;;;;;;;3.62;84.33;97640.78;5089218;28;20052;-72
2021/11/19 00:31:39;;;;;;;23.95;14.10;;;;;;;3.61;84.51;97641.84;5090221;28;20058;-73
2021/11/19 00:34:06;;;;;;;23.02;13.10;;;;;;;3.55;84.67;97629.31;5089332;28;20836;-73
2021/11/19 00:36:35;;;;;;;21.95;12.57;;;;;;;3.51;84.63;97630.88;5089739;28;20055;-73
2021/11/19 00:39:05;;;;;;;21.23;12.82;;;;;;;3.43;85.00;97634.75;5089428;28;20044;-70
2021/11/19 00:41:32;;;;;;;22.08;12.68;;;;;;;3.37;85.36;97641.94;5089362;28;20048;-74
2021/11/19 00:43:59;;;;;;;22.70;13.23;;;;;;;3.37;85.09;97630.34;5090372;28;20052;-73
2021/11/19 00:46:27;;;;;;;21.23;12.45;;;;;;;3.32;85.37;97619.47;5088873;28;20047;-73
2021/11/19 00:48:53;;;;;;;23.23;12.80;;;;;;;3.27;85.61;97620.19;5090406;28;20102;-73
2021/11/19 00:51:22;;;;;;;22.58;12.40;;;;;;;3.23;85.54;97629.81;5089213;28;20051;-73
2021/11/19 00:53:51;;;;;;;23.55;12.68;;;;;;;3.21;85.78;97629.25;5090050;28;20574;-73
2021/11/19 00:56:20;;;;;;;24.17;13.05;;;;;;;3.17;85.70;97630.75;5088670;28;20051;-73
2021/11/19 00:58:49;;;;;;;20.23;12.50;;;;;;;3.17;85.89;97641.53;5089666;28;20047;-73
2021/11/19 01:01:19;;;;;;;24.02;12.18;;;;;;;3.16;85.45;97639.91;5088174;28;20054;-73
2021/11/19 01:03:47;;;;;;;20.13;11.73;;;;;;;3.15;85.30;97632.88;5089162;28;20050;-74
2021/11/19 01:06:15;;;;;;;20.02;11.60;;;;;;;3.10;85.46;97636.28;5089494;28;20165;-73
2021/11/19 01:08:43;;;;;;;20.75;11.90;;;;;;;3.08;85.30;97648.34;5089059;28;20052;-73
2021/11/19 01:11:13;;;;;;;20.63;12.25;;;;;;;3.04;85.47;97645.31;5089148;28;20047;-73
2021/11/19 01:13:42;;;;;;;21.23;12.40;;;;;;;3.09;85.16;97644.63;5088861;28;20048;-74
2021/11/19 01:16:13;;;;;;;23.20;12.68;;;;;;;3.04;84.86;97636.44;5088990;28;20070;-74
2021/11/19 01:18:44;;;;;;;21.60;11.93;;;;;;;2.94;84.90;97626.28;5089033;28;20044;-72
2021/11/19 01:21:14;;;;;;;21.63;12.45;;;;;;;2.85;85.79;97633.91;5088696;28;20055;-73
2021/11/19 01:23:43;;;;;;;23.60;12.18;;;;;;;2.81;86.08;97621.97;5089014;28;20060;-73
2021/11/19 01:26:20;;;;;;;24.33;12.93;;;;;;;2.77;86.29;97623.53;5088212;28;20127;-73
2021/11/19 01:28:48;;;;;;;24.80;13.27;;;;;;;2.74;86.69;97620.47;5089372;28;20075;-73
2021/11/19 01:31:17;;;;;;;24.27;13.10;;;;;;;2.76;86.63;97635.31;5087417;28;20043;-73
2021/11/19 01:33:45;;;;;;;22.65;12.63;;;;;;;2.77;86.63;97630.78;5089306;28;20499;-73
2021/11/19 01:36:13;;;;;;;24.88;13.10;;;;;;;2.77;86.70;97639.66;5087894;28;20051;-73
2021/11/19 01:38:42;;;;;;;25.02;13.43;;;;;;;2.79;86.58;97634.84;5088985;28;20044;-73
2021/11/19 01:41:21;;;;;;;22.05;13.00;;;;;;;2.81;86.56;97638.09;5088264;28;20044;-73
2021/11/19 01:43:49;;;;;;;22.80;12.55;;;;;;;2.83;86.57;97638.72;5088266;28;20636;-73
2021/11/19 01:46:19;;;;;;;22.98;12.60;;;;;;;2.87;86.27;97641.72;5088984;28;20036;-73
2021/11/19 01:48:49;;;;;;;21.60;12.35;;;;;;;2.89;85.64;97647.69;5087953;28;20040;-73
2021/11/19 01:51:26;;;;;;;22.25;12.35;;;;;;;2.90;84.98;97643.13;5088569;28;20048;-73
2021/11/19 01:53:57;;;;;;;24.60;13.57;;;;;;;2.87;84.40;97647.94;5088256;28;20082;-73
2021/11/19 01:56:28;;;;;;;20.70;12.40;;;;;;;2.83;84.04;97651.34;5088417;28;20044;-73
2021/11/19 01:58:58;;;;;;;23.20;12.48;;;;;;;2.81;83.71;97662.31;5088100;28;20066;-73
2021/11/19 02:01:27;;;;;;;23.63;13.13;;;;;;;2.79;83.67;97661.75;5087598;28;20070;-73
2021/11/19 02:03:59;;;;;;;23.65;12.23;;;;;;;2.78;83.71;97662.00;5088756;28;20272;-73
2021/11/19 02:06:31;;;;;;;22.30;12.35;;;;;;;2.77;83.52;97655.81;5087371;28;20051;-73
2021/11/19 02:08:59;;;;;;;21.95;11.73;;;;;;;2.80;82.63;97668.75;5088730;28;20052;-73
2021/11/19 02:11:39;;;;;;;22.65;12.63;;;;;;;2.82;82.61;97660.47;5086100;28;20055;-73
2021/11/19 02:14:13;;;;;;;23.70;13.10;;;;;;;2.79;82.98;97667.13;5088234;28;20059;-73
2021/11/19 02:16:42;;;;;;;21.92;12.77;;;;;;;2.76;83.31;97653.31;5087917;28;20058;-73
2021/11/19 02:19:11;;;;;;;24.38;12.05;;;;;;;2.73;83.85;97654.63;5087599;28;20044;-73
2021/11/19 02:21:42;;;;;;;24.55;13.57;;;;;;;2.74;84.20;97648.19;5088049;28;20604;-73
2021/11/19 02:24:13;;;;;;;24.33;13.63;;;;;;;2.75;85.12;97649.00;5087117;28;20134;-73
2021/11/19 02:26:43;;;;;;;23.95;13.52;;;;;;;2.71;85.65;97645.13;5088112;28;20052;-73
2021/11/19 02:29:10;;;;;;;22.77;13.40;;;;;;;2.69;85.84;97650.75;5086966;28;20055;-73
2021/11/19 02:31:49;;;;;;;26.23;14.50;;;;;;;2.67;86.19;97649.38;5087774;28;20043;-73
2021/11/19 02:34:16;;;;;;;24.33;13.40;;;;;;;2.61;86.60;97651.97;5087205;28;20514;-73
2021/11/19 02:36:47;;;;;;;24.02;13.43;;;;;;;2.63;86.76;97657.09;5087458;28;20438;-73
2021/11/19 02:39:17;;;;;;;25.58;12.98;;;;;;;2.63;86.72;97662.47;5087448;28;20063;-73
2021/11/19 02:41:48;;;;;;;24.63;13.20;;;;;;;2.65;86.59;97664.91;5087290;28;20052;-73
2021/11/19 02:44:16;;;;;;;21.08;11.88;;;;;;;2.65;85.62;97673.78;5088000;28;20048;-72
2021/11/19 02:46:52;;;;;;;20.75;11.68;;;;;;;2.62;84.12;97671.59;5087035;28;20059;-74
2021/11/19 02:49:19;;;;;;;21.38;11.43;;;;;;;2.56;83.22;97662.59;5087711;28;20048;-73
2021/11/19 02:51:47;;;;;;;22.27;12.35;;;;;;;2.53;82.95;97651.47;5086747;28;20072;-72
2021/11/19 02:54:17;;;;;;;24.23;13.45;;;;;;;2.44;84.37;97645.63;5086996;28;20048;-73
2021/11/19 02:56:45;;;;;;;23.63;13.10;;;;;;;2.39;85.51;97645.50;5087036;28;20048;-72
2021/11/19 02:59:13;;;;;;;24.63;14.07;;;;;;;2.38;85.76;97648.44;5086484;28;20067;-73
2021/11/19 03:01:42;;;;;;;26.83;14.15;;;;;;;2.35;85.62;97650.56;5087521;28;20431;-72
2021/11/19 03:04:18;;;;;;;27.27;14.43;;;;;;;2.38;86.14;97649.25;5086351;28;20048;-72
2021/11/19 03:06:49;;;;;;;28.10;15.02;;;;;;;2.38;86.44;97643.06;5088173;28;20047;-72
2021/11/19 03:09:25;;;;;;;30.25;15.93;;;;;;;2.45;86.84;97649.13;5086234;28;20056;-72
2021/11/19 03:11:52;;;;;;;33.22;15.80;;;;;;;2.48;87.29;97648.69;5086126;28;20051;-72
2021/11/19 03:14:21;;;;;;;28.48;15.68;;;;;;;2.47;87.56;97644.34;5086607;28;20055;-72
2021/11/19 03:16:48;;;;;;;27.60;14.52;;;;;;;2.47;87.71;97639.78;5087163;28;20044;-72
2021/11/19 03:19:15;;;;;;;29.02;14.93;;;;;;;2.49;87.84;97644.94;5086875;28;20055;-72
2021/11/19 03:21:43;;;;;;;29.35;14.95;;;;;;;2.52;87.55;97649.84;5086462;28;20704;-72
2021/11/19 03:24:12;;;;;;;26.08;14.90;;;;;;;2.52;87.27;97650.66;5089907;28;20058;-72
2021/11/19 03:26:39;;;;;;;26.05;15.55;;;;;;;2.53;87.29;97641.53;5090818;28;20043;-72
2021/11/19 03:29:08;;;;;;;30.95;16.27;;;;;;;2.54;87.51;97624.34;5091308;28;20048;-72
2021/11/19 03:31:36;;;;;;;28.98;15.18;;;;;;;2.53;87.53;97621.91;5090538;28;20052;-72
2021/11/19 03:34:03;;;;;;;27.67;14.73;;;;;;;2.50;87.70;97625.06;5090717;28;20639;-72
2021/11/19 03:36:30;;;;;;;27.65;15.02;;;;;;;2.45;88.12;97633.00;5090850;28;20048;-72
2021/11/19 03:39:00;;;;;;;28.13;15.18;;;;;;;2.42;88.06;97633.50;5086646;28;20059;-72
2021/11/19 03:41:31;;;;;;;30.30;16.13;;;;;;;2.40;88.27;97624.81;5091055;28;20128;-72
2021/11/19 03:44:01;;;;;;;31.80;15.60;;;;;;;2.38;88.48;97629.63;5089160;28;20052;-73
2021/11/19 03:46:31;;;;;;;28.60;15.57;;;;;;;2.41;88.79;97638.06;5088816;28;20059;-72
2021/11/19 03:48:57;;;;;;;29.98;16.23;;;;;;;2.46;88.75;97640.03;5090190;28;20525;-72
2021/11/19 03:51:27;;;;;;;30.52;16.52;;;;;;;2.48;88.29;97627.16;5090893;28;20044;-73
2021/11/19 03:53:54;;;;;;;28.50;14.93;;;;;;;2.50;88.11;97639.31;5090279;28;20094;-72
2021/11/19 03:56:22;;;;;;;33.22;16.60;;;;;;;2.50;87.83;97636.63;5090823;28;20048;-73
2021/11/19 03:58:50;;;;;;;29.50;16.55;;;;;;;2.54;87.65;97645.03;5090600;28;20051;-72
2021/11/19 04:01:20;;;;;;;28.80;16.20;;;;;;;2.56;87.42;97635.72;5090165;28;20052;-73
2021/11/19 04:03:48;;;;;;;30.92;16.25;;;;;;;2.59;87.16;97642.47;5090746;28;20608;-72
2021/11/19 04:06:19;;;;;;;30.40;16.98;;;;;;;2.65;87.11;97643.41;5089552;28;20063;-73
2021/11/19 04:08:46;;;;;;;25.85;14.75;;;;;;;2.70;87.15;97636.25;5091065;28;20048;-72
2021/11/19 04:11:14;;;;;;;31.20;15.95;;;;;;;2.73;86.42;97633.09;5089720;28;20503;-72
2021/11/19 04:13:41;;;;;;;29.58;15.77;;;;;;;2.77;86.27;97630.78;5091070;28;20055;-72
2021/11/19 04:16:12;;;;;;;29.45;16.15;;;;;;;2.78;86.32;97643.16;5089311;28;20047;-74
2021/11/19 04:18:39;;;;;;;31.15;15.32;;;;;;;2.80;86.16;97635.66;5090602;28;20055;-72
2021/11/19 04:21:06;;;;;;;29.58;16.00;;;;;;;2.81;86.13;97635.41;5089934;28;20055;-72
2021/11/19 04:23:33;;;;;;;28.05;15.15;;;;;;;2.82;86.12;97634.38;5089903;28;20703;-73
2021/11/19 04:26:03;;;;;;;29.73;15.90;;;;;;;2.76;86.54;97624.56;5090448;28;20055;-73
2021/11/19 04:28:29;;;;;;;28.90;15.85;;;;;;;2.73;86.57;97625.03;5069069;28;20554;-73
2021/11/19 04:30:57;;;;;;;28.85;15.70;;;;;;;2.70;86.89;97620.13;5070332;28;20052;-72
2021/11/19 04:33:26;;;;;;;33.38;15.82;;;;;;;2.70;87.02;97622.81;5068815;28;20074;-72
2021/11/19 04:35:53;;;;;;;30.73;15.88;;;;;;;2.66;86.55;97610.88;5069256;28;20048;-72
2021/11/19 04:38:22;;;;;;;32.03;16.67;;;;;;;2.69;86.43;97615.81;5068897;28;20052;-73
2021/11/19 04:40:50;;;;;;;30.60;15.50;;;;;;;2.70;86.61;97616.63;5069966;28;20036;-72
2021/11/19 04:43:17;;;;;;;34.13;16.52;;;;;;;2.66;86.20;97618.94;5069302;28;20698;-72
2021/11/19 04:45:43;;;;;;;28.20;15.05;;;;;;;2.63;86.23;97618.63;5080107;28;20056;-72
2021/11/19 04:48:10;;;;;;;29.73;15.18;;;;;;;2.62;86.37;97612.44;5089530;28;20059;-72
2021/11/19 04:50:43;;;;;;;31.05;15.68;;;;;;;2.64;86.22;97618.38;5090211;28;20456;-72
2021/11/19 04:53:12;;;;;;;25.80;14.40;;;;;;;2.63;86.27;97619.44;5089825;28;20514;-72
2021/11/19 04:55:39;;;;;;;27.52;14.73;;;;;;;2.59;85.96;97626.34;5089305;28;20036;-72
2021/11/19 04:58:06;;;;;;;25.92;14.88;;;;;;;2.59;85.90;97623.66;5089928;28;20503;-72
2021/11/19 05:00:37;;;;;;;25.80;13.98;;;;;;;2.58;85.71;97619.31;5089130;28;20052;-72
2021/11/19 05:03:04;;;;;;;27.77;14.05;;;;;;;2.58;85.52;97622.03;5089198;28;20414;-72
2021/11/19 05:05:31;;;;;;;28.05;15.43;;;;;;;2.60;85.02;97630.66;5089289;28;20044;-72
2021/11/19 05:07:59;;;;;;;29.42;16.30;;;;;;;2.63;85.32;97627.50;5089448;28;20051;-72
2021/11/19 05:10:26;;;;;;;29.13;15.50;;;;;;;2.63;85.15;97629.38;5088984;28;20082;-72
2021/11/19 05:12:57;;;;;;;27.73;14.82;;;;;;;2.59;85.10;97635.22;5088767;28;20036;-72
2021/11/19 05:15:25;;;;;;;30.20;15.27;;;;;;;2.55;84.90;97625.16;5080404;28;20052;-73
2021/11/19 05:17:52;;;;;;;30.77;15.93;;;;;;;2.53;85.40;97630.78;5068535;28;20128;-74
2021/11/19 05:20:21;;;;;;;33.40;16.58;;;;;;;2.52;85.09;97620.28;5069202;28;20056;-72
2021/11/19 05:22:49;;;;;;;35.83;16.27;;;;;;;2.53;85.42;97629.97;5068339;28;20634;-72
2021/11/19 05:25:19;;;;;;;28.92;16.25;;;;;;;2.51;85.23;97632.09;5068872;28;20052;-72
2021/11/19 05:27:47;;;;;;;32.15;15.43;;;;;;;2.50;85.39;97623.19;5068893;28;20473;-72
2021/11/19 05:30:14;;;;;;;32.40;15.90;;;;;;;2.47;85.32;97620.97;5068065;28;20083;-72
2021/11/19 05:32:41;;;;;;;32.45;15.82;;;;;;;2.48;85.36;97622.59;5068790;28;20548;-72
2021/11/19 05:35:09;;;;;;;28.40;15.30;;;;;;;2.50;85.41;97625.06;5067688;28;20055;-73
2021/11/19 05:37:36;;;;;;;28.38;14.85;;;;;;;2.48;85.46;97624.47;5069291;28;20056;-72
2021/11/19 05:40:05;;;;;;;29.20;15.65;;;;;;;2.48;85.21;97627.16;5067544;28;20056;-72
2021/11/19 05:42:34;;;;;;;32.50;14.88;;;;;;;2.46;85.30;97621.22;5069214;28;20056;-72
2021/11/19 05:45:00;;;;;;;36.22;18.38;;;;;;;2.45;85.52;97623.06;5067490;28;20118;-72
2021/11/19 05:47:27;;;;;;;34.30;17.25;;;;;;;2.48;85.20;97616.41;5068646;28;20531;-72
2021/11/19 05:49:57;;;;;;;31.75;15.82;;;;;;;2.50;85.31;97619.69;5068223;28;20412;-72
2021/11/19 05:52:23;;;;;;;35.10;15.48;;;;;;;2.46;85.47;97619.34;5067833;28;20048;-72
2021/11/19 05:54:50;;;;;;;30.60;15.52;;;;;;;2.44;85.53;97623.31;5068425;28;20052;-72
2021/11/19 05:57:16;;;;;;;27.50;14.23;;;;;;;2.42;85.81;97628.94;5067375;28;20709;-72
2021/11/19 05:59:44;;;;;;;25.15;14.57;;;;;;;2.42;85.72;97628.13;5068410;28;20507;-72
2021/11/19 06:02:14;;;;;;;28.35;14.45;;;;;;;2.42;85.46;97628.13;5067232;28;20129;-72
2021/11/19 06:04:41;;;;;;;22.75;12.85;;;;;;;2.43;85.39;97629.75;5068718;28;20037;-72
2021/11/19 06:07:07;;;;;;;28.42;14.40;;;;;;;2.44;85.35;97637.56;5067105;28;20040;-72
2021/11/19 06:09:37;;;;;;;26.35;13.57;;;;;;;2.45;85.01;97638.38;5068190;28;20102;-72
2021/11/19 06:12:08;;;;;;;25.30;12.65;;;;;;;2.46;84.85;97650.78;5067324;28;20346;-72
2021/11/19 06:14:37;;;;;;;24.80;13.10;;;;;;;2.42;84.66;97645.06;5067572;28;20052;-72
2021/11/19 06:17:08;;;;;;;27.08;13.60;;;;;;;2.40;84.50;97646.31;5067805;28;20059;-72
2021/11/19 06:19:39;;;;;;;28.00;13.70;;;;;;;2.42;84.90;97652.31;5065996;28;20048;-72
2021/11/19 06:22:10;;;;;;;24.45;13.65;;;;;;;2.39;84.82;97656.25;5066335;28;20059;-73
2021/11/19 06:24:40;;;;;;;27.92;13.45;;;;;;;2.39;84.72;97666.19;5066975;28;20055;-72
2021/11/19 06:27:07;;;;;;;28.17;13.40;;;;;;;2.38;84.76;97672.63;5067922;28;20067;-72
2021/11/19 06:29:33;;;;;;;22.50;12.45;;;;;;;2.38;84.79;97673.44;5067122;28;20117;-72
2021/11/19 06:32:02;;;;;;;27.13;14.55;;;;;;;2.38;84.70;97675.31;5067264;28;20063;-72
2021/11/19 06:34:30;;;;;;;23.98;13.75;;;;;;;2.40;84.39;97673.22;5067378;28;20052;-73
2021/11/19 06:36:57;;;;;;;23.88;12.90;;;;;;;2.43;83.80;97676.25;5067347;28;20064;-72
2021/11/19 06:39:26;;;;;;;23.38;12.77;;;;;;;2.43;83.16;97678.13;5067756;28;20048;-72
2021/11/19 06:41:52;;;;;;;26.25;13.18;;;;;;;2.42;83.58;97684.56;5065465;28;20045;-72
2021/11/19 06:44:19;;;;;;;25.98;13.45;;;;;;;2.40;83.60;97692.03;5067523;28;20636;-72
2021/11/19 06:46:45;;;;;;;26.48;13.52;;;;;;;2.41;83.66;97691.00;5086324;28;20044;-72
2021/11/19 06:49:12;;;;;;;27.55;13.77;;;;;;;2.41;84.13;97696.38;5087829;28;20404;-74
2021/11/19 06:51:40;;;;;;;28.70;14.52;;;;;;;2.45;84.09;97686.78;5087352;28;20048;-72
2021/11/19 06:54:08;;;;;;;28.95;14.20;;;;;;;2.52;83.81;97676.75;5087525;28;20846;-72
2021/11/19 06:56:35;;;;;;;26.52;13.70;;;;;;;2.54;83.69;97680.00;5087344;28;20518;-72
2021/11/19 06:59:01;;;;;;;27.02;13.40;;;;;;;2.53;83.97;97675.69;5086968;28;20090;-73
2021/11/19 07:01:28;;;;;;;26.63;13.45;;;;;;;2.55;84.10;97676.25;5107437;28;20066;-72
2021/11/19 07:03:54;;;;;;;30.25;14.48;;;;;;;2.57;84.34;97672.28;5107397;28;20165;-72
2021/11/19 07:06:21;;;;;;;24.83;13.35;;;;;;;2.64;84.84;97674.84;5107743;28;20780;-72
2021/11/19 07:08:48;;;;;;;23.55;12.38;;;;;;;2.76;85.13;97672.97;5107222;28;20043;-73
2021/11/19 07:11:19;;;;;;;25.70;13.25;;;;;;;2.84;85.32;97680.69;5107619;28;20047;-72
2021/11/19 07:13:48;;;;;;;24.63;12.77;;;;;;;2.92;85.21;97686.75;5107071;28;20062;-74
2021/11/19 07:16:15;;;;;;;23.40;12.85;;;;;;;3.03;85.39;97680.56;5088040;28;20051;-72
2021/11/19 07:18:41;;;;;;;21.33;12.23;;;;;;;3.15;85.17;97681.34;5087356;28;20534;-76
2021/11/19 07:21:08;;;;;;;20.90;11.82;;;;;;;3.21;84.87;97691.16;5086454;28;20048;-72
2021/11/19 07:23:35;;;;;;;17.63;10.15;;;;;;;3.28;84.66;97694.50;5087383;28;20056;-72
2021/11/19 07:26:03;;;;;;;19.58;10.98;;;;;;;3.35;84.38;97695.22;5087143;28;20060;-72
2021/11/19 07:28:30;;;;;;;19.05;10.20;;;;;;;3.39;84.22;97691.00;5087518;28;20055;-72
2021/11/19 07:30:59;;;;;;;21.20;11.65;;;;;;;3.46;83.82;97700.81;5086523;28;20131;-72
2021/11/19 07:33:27;;;;;;;20.88;11.55;;;;;;;3.55;83.71;97707.44;5087726;28;20055;-72
2021/11/19 07:35:55;;;;;;;19.90;12.32;;;;;;;3.60;83.30;97700.28;5086718;28;20044;-72
2021/11/19 07:38:24;;;;;;;24.52;12.27;;;;;;;3.70;83.33;97691.56;5086986;28;20067;-72
2021/11/19 07:40:52;;;;;;;22.17;12.13;;;;;;;3.82;82.97;97695.03;5086474;28;20036;-72
2021/11/19 07:43:22;;;;;;;19.60;10.70;;;;;;;3.97;82.35;97699.03;5086870;28;20044;-72
2021/11/19 07:45:49;;;;;;;16.58;10.80;;;;;;;4.03;81.31;97700.78;5070112;28;20044;-72
2021/11/19 07:48:18;;;;;;;17.27;10.55;;;;;;;4.05;80.32;97712.13;5066211;28;20045;-72
2021/11/19 07:50:47;;;;;;;25.15;10.57;;;;;;;4.04;80.39;97716.72;5067134;28;20048;-74
2021/11/19 07:53:16;;;;;;;16.80;9.63;;;;;;;4.05;80.64;97715.66;5065086;28;20079;-73
2021/11/19 07:55:43;;;;;;;15.18;9.10;;;;;;;4.11;81.10;97714.66;5067305;28;20044;-70
2021/11/19 07:58:10;;;;;;;19.15;10.07;;;;;;;4.09;80.55;97719.50;5064005;28;20049;-69
2021/11/19 08:00:43;;;;;;;17.40;9.98;;;;;;;4.07;79.99;97723.47;5066564;28;20060;-69
2021/11/19 08:03:09;;;;;;;17.98;10.23;;;;;;;3.99;80.29;97724.69;5065801;28;20045;-69
2021/11/19 08:05:36;;;;;;;17.48;9.85;;;;;;;3.97;80.85;97726.00;5066483;28;20411;-70
2021/11/19 08:08:03;;;;;;;18.10;10.80;;;;;;;4.02;81.58;97729.63;5065863;28;20550;-71
2021/11/19 08:10:30;;;;;;;17.65;10.32;;;;;;;4.16;81.05;97733.63;5067311;28;20052;-69
2021/11/19 08:12:57;;;;;;;20.75;11.13;;;;;;;4.29;80.87;97729.00;5070399;28;20052;-71
2021/11/19 08:15:26;;;;;;;18.40;10.65;;;;;;;4.40;80.62;97742.41;5069106;28;20051;-68
2021/11/19 08:17:56;;;;;;;21.75;10.43;;;;;;;4.48;79.95;97721.47;5070621;28;20048;-68
2021/11/19 08:20:24;;;;;;;18.20;9.63;;;;;;;4.51;79.50;97715.59;5069214;28;20051;-68
2021/11/19 08:22:51;;;;;;;21.67;11.13;;;;;;;4.44;79.45;97707.69;5070020;28;20055;-68
2021/11/19 08:25:18;;;;;;;22.38;10.57;;;;;;;4.41;80.03;97710.84;5069777;28;20145;-68
2021/11/19 08:27:49;;;;;;;17.92;9.70;;;;;;;4.34;80.22;97712.91;5069777;28;20048;-68
2021/11/19 08:30:18;;;;;;;18.17;10.50;;;;;;;4.30;80.53;97719.84;5069967;28;20570;-69
2021/11/19 08:32:45;;;;;;;18.65;10.40;;;;;;;4.34;80.91;97711.03;5069214;28;20048;-68
2021/11/19 08:35:13;;;;;;;18.15;10.38;;;;;;;4.37;81.26;97715.09;5070329;28;20079;-68
2021/11/19 08:37:41;;;;;;;18.13;10.35;;;;;;;4.43;81.08;97708.72;5069129;28;20450;-69
2021/11/19 08:40:11;;;;;;;19.52;11.05;;;;;;;4.47;80.97;97703.66;5070281;28;20527;-69
2021/11/19 08:42:38;;;;;;;21.33;11.32;;;;;;;4.48;81.37;97706.09;5069194;28;20048;-69
2021/11/19 08:45:06;;;;;;;19.42;11.50;;;;;;;4.55;81.64;97706.78;5069756;28;20052;-69
2021/11/19 08:47:33;;;;;;;22.90;11.95;;;;;;;4.66;81.61;97696.97;5069328;28;20056;-69
2021/11/19 08:50:01;;;;;;;19.25;11.45;;;;;;;4.76;81.87;97697.09;5069698;28;20080;-68
2021/11/19 08:52:29;;;;;;;20.27;10.85;;;;;;;4.91;80.96;97694.63;5069289;28;20079;-68
2021/11/19 08:54:56;;;;;;;22.38;12.48;;;;;;;5.05;80.43;97694.25;5069574;28;20044;-70
2021/11/19 08:57:24;;;;;;;21.65;12.15;;;;;;;5.11;79.68;97694.06;5069624;28;20055;-70
2021/11/19 08:59:53;;;;;;;20.05;11.50;;;;;;;5.29;80.74;97701.06;5068890;28;20051;-71
2021/11/19 09:02:21;;;;;;;23.52;10.77;;;;;;;5.38;79.45;97704.16;5069473;28;20101;-69
2021/11/19 09:04:48;;;;;;;21.10;12.18;;;;;;;5.30;79.02;97700.00;5068845;28;20052;-73
2021/11/19 09:07:16;;;;;;;21.08;12.02;;;;;;;5.28;79.40;97701.31;5068584;28;20056;-70
2021/11/19 09:09:45;;;;;;;21.75;12.20;;;;;;;5.31;80.29;97703.50;5069234;28;20045;-69
2021/11/19 09:12:12;;;;;;;23.60;13.15;;;;;;;5.37;80.13;97711.41;5068413;28;20419;-70
2021/11/19 09:14:39;;;;;;;23.42;13.10;;;;;;;5.52;80.44;97707.28;5069379;28;20054;-70
2021/11/19 09:17:12;;;;;;;23.00;12.52;;;;;;;5.68;80.34;97709.06;5068381;28;20049;-70
2021/11/19 09:19:43;;;;;;;27.02;12.85;;;;;;;5.85;80.46;97704.41;5069625;28;20059;-70
2021/11/19 09:22:21;;;;;;;21.80;12.48;;;;;;;6.09;80.16;97712.25;5067633;28;20056;-70
2021/11/19 09:24:49;;;;;;;21.15;12.57;;;;;;;6.19;78.22;97704.22;5069881;28;20052;-70
2021/11/19 09:27:18;;;;;;;21.77;12.07;;;;;;;6.23;75.94;97705.34;5068199;28;20056;-71
2021/11/19 09:29:49;;;;;;;20.73;12.27;;;;;;;6.34;76.02;97693.53;5069274;28;20442;-71
2021/11/19 09:32:17;;;;;;;22.02;13.05;;;;;;;6.43;75.62;97699.31;5068341;28;20055;-70
2021/11/19 09:34:46;;;;;;;21.65;13.10;;;;;;;6.55;75.14;97702.63;5068384;28;20052;-69
2021/11/19 09:37:15;;;;;;;21.92;12.60;;;;;;;6.48;75.52;97697.44;5068706;28;20049;-69
2021/11/19 09:39:43;;;;;;;21.88;12.90;;;;;;;6.36;76.47;97699.50;5050158;28;20044;-71
2021/11/19 09:42:18;;;;;;;24.80;14.35;;;;;;;6.38;77.86;97697.38;5068814;28;20056;-70
2021/11/19 09:45:22;;;;;;;24.40;14.65;;;;;;;6.40;76.89;97694.41;5068011;28;20048;-70
2021/11/19 09:47:58;;;;;;;26.27;14.52;;;;;;;6.60;75.78;97699.97;5083432;28;20587;-69
2021/11/19 09:50:57;;;;;;;23.33;13.52;;;;;;;6.64;75.35;97694.88;5088142;28;20123;-69
2021/11/19 09:53:57;;;;;;;24.70;13.95;;;;;;;6.57;75.53;97691.53;5087656;28;20415;-71
2021/11/19 09:56:52;;;;;;;24.55;14.55;;;;;;;6.64;75.91;97694.88;5088619;28;20422;-70
2021/11/19 09:59:32;;;;;;;22.48;14.13;;;;;;;6.77;75.58;97694.41;5088150;28;20602;-69
2021/11/19 10:02:36;;;;;;;25.33;14.43;;;;;;;6.80;74.92;97692.00;5088157;28;20052;-70
2021/11/19 10:05:15;;;;;;;26.63;15.45;;;;;;;6.93;74.79;97693.41;5067780;28;20043;-69
2021/11/19 10:07:53;;;;;;;30.52;15.98;;;;;;;6.96;75.14;97700.22;5068254;28;20041;-70
2021/11/19 10:10:38;;;;;;;26.17;15.13;;;;;;;6.92;75.23;97689.09;5067226;28;20526;-70
2021/11/19 10:13:11;;;;;;;27.42;14.80;;;;;;;6.84;74.58;97684.19;5068310;28;20056;-70
2021/11/19 10:15:49;;;;;;;25.43;15.07;;;;;;;6.80;75.13;97681.16;5067748;28;20492;-70
2021/11/19 10:18:21;;;;;;;25.15;14.93;;;;;;;6.77;74.71;97678.97;5067758;28;20052;-71
2021/11/19 10:20:51;;;;;;;25.67;15.02;;;;;;;6.73;75.53;97667.06;5067910;28;20055;-70
2021/11/19 10:23:21;;;;;;;24.23;14.30;;;;;;;6.73;74.74;97677.03;5067833;28;20048;-70
2021/11/19 10:26:04;;;;;;;26.85;15.82;;;;;;;6.73;75.26;97677.03;5068440;28;20040;-70
2021/11/19 10:28:38;;;;;;;23.92;15.07;;;;;;;6.59;75.08;97674.00;5066884;28;20120;-70
2021/11/19 10:31:08;;;;;;;23.63;14.68;;;;;;;6.51;76.44;97680.69;5067835;28;20052;-70
2021/11/19 10:33:39;;;;;;;25.98;15.68;;;;;;;6.53;76.88;97667.72;5066162;28;20047;-69
2021/11/19 10:36:17;;;;;;;30.45;16.40;;;;;;;6.47;76.66;97657.94;5067922;28;20050;-70
2021/11/19 10:39:13;;;;;;;28.15;14.70;;;;;;;6.40;77.37;97665.44;5067156;28;20468;-70
2021/11/19 10:42:12;;;;;;;26.98;15.32;;;;;;;6.37;77.29;97657.03;5066757;28;20036;-70
2021/11/19 10:45:21;;;;;;;29.02;15.98;;;;;;;6.37;77.76;97652.47;5068411;28;20048;-70
2021/11/19 10:48:27;;;;;;;24.38;15.27;;;;;;;6.39;77.97;97644.88;5087448;28;20040;-70
2021/11/19 10:51:09;;;;;;;32.22;16.15;;;;;;;6.41;77.99;97642.72;5062615;28;20114;-71
2021/11/19 10:54:29;;;;;;;24.08;15.13;;;;;;;6.46;77.61;97640.06;5087827;28;20045;-70
2021/11/19 10:57:07;;;;;;;30.23;16.33;;;;;;;6.54;78.30;97641.47;5087527;28;20725;-69
2021/11/19 10:59:38;;;;;;;26.33;15.70;;;;;;;6.68;77.65;97642.66;5086858;28;20036;-71
2021/11/19 11:02:37;;;;;;;24.90;14.75;;;;;;;6.83;77.34;97641.91;5087301;28;20062;-72
2021/11/19 11:05:22;;;;;;;32.10;16.77;;;;;;;6.93;77.37;97643.88;4984635;28;20153;-72
2021/11/19 11:08:06;;;;;;;31.80;16.17;;;;;;;6.95;77.14;97634.41;5077070;28;20044;-72
2021/11/19 11:10:38;;;;;;;29.70;16.48;;;;;;;6.95;77.16;97631.72;5087421;28;20494;-72
2021/11/19 11:13:22;;;;;;;26.83;15.48;;;;;;;7.02;77.59;97629.56;5086089;28;20118;-72
2021/11/19 11:15:53;;;;;;;28.20;15.90;;;;;;;7.13;77.76;97622.28;5087682;28;20055;-72
2021/11/19 11:18:23;;;;;;;28.38;15.38;;;;;;;7.20;76.80;97611.22;5086283;28;20048;-72
2021/11/19 11:21:28;;;;;;;25.90;15.90;;;;;;;7.19;76.75;97599.56;5087404;28;20044;-69
2021/11/19 11:24:13;;;;;;;26.90;15.20;;;;;;;7.28;77.21;97602.56;5045873;28;20040;-70
2021/11/19 11:26:45;;;;;;;28.20;15.45;;;;;;;7.37;76.30;97600.19;5086458;28;20052;-71
2021/11/19 11:29:30;;;;;;;25.50;15.23;;;;;;;7.35;75.68;97603.13;5087433;28;20743;-70
2021/11/19 11:32:08;;;;;;;26.10;15.07;;;;;;;7.42;75.25;97603.72;5086555;28;20052;-70
2021/11/19 11:34:42;;;;;;;24.90;14.40;;;;;;;7.43;75.03;97594.50;5087118;28;20491;-69
2021/11/19 11:37:16;;;;;;;24.75;15.00;;;;;;;7.44;75.34;97589.88;5086997;28;20072;-70
2021/11/19 11:39:51;;;;;;;27.73;15.43;;;;;;;7.50;75.52;97586.09;5086279;28;20824;-70
2021/11/19 11:42:24;;;;;;;23.33;13.82;;;;;;;7.56;73.98;97587.72;5086820;28;20055;-68